sensor_id;sensor_type;location;lat;lon;timestamp;P1;durP1;ratioP1;P2;durP2;ratioP2
63693;SDS011;49839;51.798;10.954;2022-12-18T00:01:14;8.35;;;2.80;;
63693;SDS011;49839;51.798;10.954;2022-12-18T00:03:41;5.35;;;2.50;;
63693;SDS011;49839;51.798;10.954;2022-12-18T00:06:11;7.03;;;3.13;;
63693;SDS011;49839;51.798;10.954;2022-12-18T00:08:40;7.05;;;2.10;;
63693;SDS011;49839;51.798;10.954;2022-12-18T00:11:08;7.78;;;2.65;;
63693;SDS011;49839;51.798;10.954;2022-12-18T00:13:37;9.50;;;2.65;;
63693;SDS011;49839;51.798;10.954;2022-12-18T00:16:06;8.30;;;2.60;;
63693;SDS011;49839;51.798;10.954;2022-12-18T00:18:34;9.27;;;3.92;;
63693;SDS011;49839;51.798;10.954;2022-12-18T00:21:02;7.95;;;3.28;;
63693;SDS011;49839;51.798;10.954;2022-12-18T00:23:30;5.03;;;2.40;;
63693;SDS011;49839;51.798;10.954;2022-12-18T00:25:58;7.68;;;3.00;;
63693;SDS011;49839;51.798;10.954;2022-12-18T00:28:26;6.75;;;2.67;;
63693;SDS011;49839;51.798;10.954;2022-12-18T00:31:00;8.18;;;2.45;;
63693;SDS011;49839;51.798;10.954;2022-12-18T00:33:27;6.82;;;2.97;;
63693;SDS011;49839;51.798;10.954;2022-12-18T00:35:59;8.95;;;3.63;;
63693;SDS011;49839;51.798;10.954;2022-12-18T00:38:27;5.35;;;2.70;;
63693;SDS011;49839;51.798;10.954;2022-12-18T00:40:55;8.23;;;3.22;;
63693;SDS011;49839;51.798;10.954;2022-12-18T00:43:22;7.70;;;3.67;;
63693;SDS011;49839;51.798;10.954;2022-12-18T00:45:49;5.82;;;2.75;;
63693;SDS011;49839;51.798;10.954;2022-12-18T00:48:18;8.10;;;2.80;;
63693;SDS011;49839;51.798;10.954;2022-12-18T00:50:45;6.75;;;2.88;;
63693;SDS011;49839;51.798;10.954;2022-12-18T00:53:14;8.07;;;3.03;;
63693;SDS011;49839;51.798;10.954;2022-12-18T00:55:41;10.65;;;3.22;;
63693;SDS011;49839;51.798;10.954;2022-12-18T00:58:09;6.05;;;2.20;;
63693;SDS011;49839;51.798;10.954;2022-12-18T01:00:36;7.30;;;3.30;;
63693;SDS011;49839;51.798;10.954;2022-12-18T01:03:04;9.88;;;3.67;;
63693;SDS011;49839;51.798;10.954;2022-12-18T01:05:33;4.82;;;2.28;;
63693;SDS011;49839;51.798;10.954;2022-12-18T01:08:01;11.85;;;3.15;;
63693;SDS011;49839;51.798;10.954;2022-12-18T01:10:28;5.32;;;2.53;;
63693;SDS011;49839;51.798;10.954;2022-12-18T01:12:55;5.88;;;2.40;;
63693;SDS011;49839;51.798;10.954;2022-12-18T01:15:23;8.18;;;3.00;;
63693;SDS011;49839;51.798;10.954;2022-12-18T01:17:51;8.48;;;2.92;;
63693;SDS011;49839;51.798;10.954;2022-12-18T01:20:19;7.35;;;3.03;;
63693;SDS011;49839;51.798;10.954;2022-12-18T01:22:48;6.50;;;2.53;;
63693;SDS011;49839;51.798;10.954;2022-12-18T01:25:15;8.65;;;3.25;;
63693;SDS011;49839;51.798;10.954;2022-12-18T01:27:43;6.38;;;2.65;;
63693;SDS011;49839;51.798;10.954;2022-12-18T01:30:10;6.53;;;2.97;;
63693;SDS011;49839;51.798;10.954;2022-12-18T01:32:38;8.32;;;1.90;;
63693;SDS011;49839;51.798;10.954;2022-12-18T01:35:06;5.45;;;2.28;;
63693;SDS011;49839;51.798;10.954;2022-12-18T01:37:33;5.75;;;2.70;;
63693;SDS011;49839;51.798;10.954;2022-12-18T01:40:02;6.68;;;2.58;;
63693;SDS011;49839;51.798;10.954;2022-12-18T01:42:30;6.43;;;2.30;;
63693;SDS011;49839;51.798;10.954;2022-12-18T01:44:59;7.00;;;2.92;;
63693;SDS011;49839;51.798;10.954;2022-12-18T01:47:28;6.30;;;2.63;;
63693;SDS011;49839;51.798;10.954;2022-12-18T01:49:57;5.90;;;2.53;;
63693;SDS011;49839;51.798;10.954;2022-12-18T01:52:27;9.77;;;2.10;;
63693;SDS011;49839;51.798;10.954;2022-12-18T01:54:55;5.90;;;2.33;;
63693;SDS011;49839;51.798;10.954;2022-12-18T01:57:24;5.70;;;2.70;;
63693;SDS011;49839;51.798;10.954;2022-12-18T01:59:53;4.38;;;1.85;;
63693;SDS011;49839;51.798;10.954;2022-12-18T02:02:20;6.15;;;2.20;;
63693;SDS011;49839;51.798;10.954;2022-12-18T02:04:48;8.05;;;2.70;;
63693;SDS011;49839;51.798;10.954;2022-12-18T02:07:17;4.40;;;2.10;;
63693;SDS011;49839;51.798;10.954;2022-12-18T02:09:47;7.15;;;2.10;;
63693;SDS011;49839;51.798;10.954;2022-12-18T02:12:16;6.60;;;1.98;;
63693;SDS011;49839;51.798;10.954;2022-12-18T02:14:47;7.18;;;1.88;;
63693;SDS011;49839;51.798;10.954;2022-12-18T02:17:20;6.30;;;2.42;;
63693;SDS011;49839;51.798;10.954;2022-12-18T02:19:53;6.43;;;1.85;;
63693;SDS011;49839;51.798;10.954;2022-12-18T02:22:26;4.78;;;2.33;;
63693;SDS011;49839;51.798;10.954;2022-12-18T02:24:59;4.50;;;1.63;;
63693;SDS011;49839;51.798;10.954;2022-12-18T02:27:28;4.10;;;1.63;;
63693;SDS011;49839;51.798;10.954;2022-12-18T02:29:57;6.35;;;2.42;;
63693;SDS011;49839;51.798;10.954;2022-12-18T02:32:27;6.00;;;2.17;;
63693;SDS011;49839;51.798;10.954;2022-12-18T02:34:55;7.05;;;1.83;;
63693;SDS011;49839;51.798;10.954;2022-12-18T02:37:23;7.63;;;1.55;;
63693;SDS011;49839;51.798;10.954;2022-12-18T02:39:53;5.45;;;1.83;;
63693;SDS011;49839;51.798;10.954;2022-12-18T02:42:22;4.28;;;1.73;;
63693;SDS011;49839;51.798;10.954;2022-12-18T02:44:51;5.03;;;1.63;;
63693;SDS011;49839;51.798;10.954;2022-12-18T02:47:20;3.90;;;1.38;;
63693;SDS011;49839;51.798;10.954;2022-12-18T02:49:52;4.82;;;1.55;;
63693;SDS011;49839;51.798;10.954;2022-12-18T02:52:23;6.85;;;1.73;;
63693;SDS011;49839;51.798;10.954;2022-12-18T02:54:55;4.68;;;1.60;;
63693;SDS011;49839;51.798;10.954;2022-12-18T02:57:25;7.60;;;1.58;;
63693;SDS011;49839;51.798;10.954;2022-12-18T02:59:58;2.28;;;1.20;;
63693;SDS011;49839;51.798;10.954;2022-12-18T03:02:29;4.35;;;1.88;;
63693;SDS011;49839;51.798;10.954;2022-12-18T03:05:02;4.80;;;1.50;;
63693;SDS011;49839;51.798;10.954;2022-12-18T03:07:36;3.53;;;1.45;;
63693;SDS011;49839;51.798;10.954;2022-12-18T03:10:06;8.82;;;2.35;;
63693;SDS011;49839;51.798;10.954;2022-12-18T03:12:34;6.25;;;1.77;;
63693;SDS011;49839;51.798;10.954;2022-12-18T03:15:04;5.95;;;1.80;;
63693;SDS011;49839;51.798;10.954;2022-12-18T03:17:40;7.60;;;1.70;;
63693;SDS011;49839;51.798;10.954;2022-12-18T03:20:09;3.90;;;1.50;;
63693;SDS011;49839;51.798;10.954;2022-12-18T03:22:37;6.18;;;1.85;;
63693;SDS011;49839;51.798;10.954;2022-12-18T03:25:06;5.50;;;1.55;;
63693;SDS011;49839;51.798;10.954;2022-12-18T03:27:35;5.60;;;1.60;;
63693;SDS011;49839;51.798;10.954;2022-12-18T03:30:06;4.93;;;1.20;;
63693;SDS011;49839;51.798;10.954;2022-12-18T03:32:36;4.80;;;1.63;;
63693;SDS011;49839;51.798;10.954;2022-12-18T03:35:06;5.80;;;1.45;;
63693;SDS011;49839;51.798;10.954;2022-12-18T03:37:35;8.75;;;1.00;;
63693;SDS011;49839;51.798;10.954;2022-12-18T03:40:03;7.25;;;2.03;;
63693;SDS011;49839;51.798;10.954;2022-12-18T03:42:32;2.60;;;1.05;;
63693;SDS011;49839;51.798;10.954;2022-12-18T03:45:07;5.95;;;1.85;;
63693;SDS011;49839;51.798;10.954;2022-12-18T03:47:38;3.45;;;1.65;;
63693;SDS011;49839;51.798;10.954;2022-12-18T03:50:10;5.50;;;1.67;;
63693;SDS011;49839;51.798;10.954;2022-12-18T03:52:41;8.82;;;3.00;;
63693;SDS011;49839;51.798;10.954;2022-12-18T03:55:09;5.87;;;1.40;;
63693;SDS011;49839;51.798;10.954;2022-12-18T03:57:38;3.83;;;1.40;;
63693;SDS011;49839;51.798;10.954;2022-12-18T04:00:08;4.88;;;1.17;;
63693;SDS011;49839;51.798;10.954;2022-12-18T04:02:36;4.30;;;1.52;;
63693;SDS011;49839;51.798;10.954;2022-12-18T04:05:05;7.50;;;1.52;;
63693;SDS011;49839;51.798;10.954;2022-12-18T04:07:34;4.97;;;1.57;;
63693;SDS011;49839;51.798;10.954;2022-12-18T04:10:03;4.88;;;1.88;;
63693;SDS011;49839;51.798;10.954;2022-12-18T04:12:33;4.07;;;1.38;;
63693;SDS011;49839;51.798;10.954;2022-12-18T04:15:01;3.40;;;1.20;;
63693;SDS011;49839;51.798;10.954;2022-12-18T04:17:30;6.93;;;1.80;;
63693;SDS011;49839;51.798;10.954;2022-12-18T04:19:57;3.47;;;1.30;;
63693;SDS011;49839;51.798;10.954;2022-12-18T04:22:24;3.92;;;1.77;;
63693;SDS011;49839;51.798;10.954;2022-12-18T04:24:52;4.35;;;1.80;;
63693;SDS011;49839;51.798;10.954;2022-12-18T04:27:19;5.45;;;1.70;;
63693;SDS011;49839;51.798;10.954;2022-12-18T04:29:47;5.93;;;1.92;;
63693;SDS011;49839;51.798;10.954;2022-12-18T04:32:14;4.18;;;1.50;;
63693;SDS011;49839;51.798;10.954;2022-12-18T04:34:43;5.63;;;1.60;;
63693;SDS011;49839;51.798;10.954;2022-12-18T04:37:11;5.72;;;1.55;;
63693;SDS011;49839;51.798;10.954;2022-12-18T04:39:38;3.63;;;1.23;;
63693;SDS011;49839;51.798;10.954;2022-12-18T04:42:06;4.70;;;1.38;;
63693;SDS011;49839;51.798;10.954;2022-12-18T04:44:33;6.35;;;2.08;;
63693;SDS011;49839;51.798;10.954;2022-12-18T04:47:00;4.97;;;1.52;;
63693;SDS011;49839;51.798;10.954;2022-12-18T04:49:28;3.30;;;1.55;;
63693;SDS011;49839;51.798;10.954;2022-12-18T04:51:57;3.40;;;1.55;;
63693;SDS011;49839;51.798;10.954;2022-12-18T04:54:24;5.00;;;1.98;;
63693;SDS011;49839;51.798;10.954;2022-12-18T04:56:52;5.05;;;1.80;;
63693;SDS011;49839;51.798;10.954;2022-12-18T04:59:20;6.15;;;1.77;;
63693;SDS011;49839;51.798;10.954;2022-12-18T05:01:48;3.20;;;1.40;;
63693;SDS011;49839;51.798;10.954;2022-12-18T05:04:16;4.78;;;2.03;;
63693;SDS011;49839;51.798;10.954;2022-12-18T05:06:45;5.20;;;1.40;;
63693;SDS011;49839;51.798;10.954;2022-12-18T05:09:14;3.92;;;1.45;;
63693;SDS011;49839;51.798;10.954;2022-12-18T05:11:42;2.80;;;1.00;;
63693;SDS011;49839;51.798;10.954;2022-12-18T05:14:11;3.65;;;0.90;;
63693;SDS011;49839;51.798;10.954;2022-12-18T05:16:39;3.90;;;1.10;;
63693;SDS011;49839;51.798;10.954;2022-12-18T05:19:06;2.83;;;1.25;;
63693;SDS011;49839;51.798;10.954;2022-12-18T05:21:34;2.45;;;1.20;;
63693;SDS011;49839;51.798;10.954;2022-12-18T05:24:01;4.18;;;1.65;;
63693;SDS011;49839;51.798;10.954;2022-12-18T05:26:30;4.38;;;1.85;;
63693;SDS011;49839;51.798;10.954;2022-12-18T05:28:57;6.03;;;2.03;;
63693;SDS011;49839;51.798;10.954;2022-12-18T05:31:25;2.67;;;1.20;;
63693;SDS011;49839;51.798;10.954;2022-12-18T05:33:52;2.47;;;1.15;;
63693;SDS011;49839;51.798;10.954;2022-12-18T05:36:20;3.05;;;1.23;;
63693;SDS011;49839;51.798;10.954;2022-12-18T05:38:47;4.40;;;1.52;;
63693;SDS011;49839;51.798;10.954;2022-12-18T05:41:15;3.75;;;1.63;;
63693;SDS011;49839;51.798;10.954;2022-12-18T05:43:44;3.10;;;1.27;;
63693;SDS011;49839;51.798;10.954;2022-12-18T05:46:12;4.57;;;1.37;;
63693;SDS011;49839;51.798;10.954;2022-12-18T05:48:40;5.32;;;1.17;;
63693;SDS011;49839;51.798;10.954;2022-12-18T05:51:08;3.08;;;1.25;;
63693;SDS011;49839;51.798;10.954;2022-12-18T05:53:36;4.25;;;1.50;;
63693;SDS011;49839;51.798;10.954;2022-12-18T05:56:05;1.88;;;0.60;;
63693;SDS011;49839;51.798;10.954;2022-12-18T05:58:33;5.38;;;0.93;;
63693;SDS011;49839;51.798;10.954;2022-12-18T06:01:07;5.00;;;1.30;;
63693;SDS011;49839;51.798;10.954;2022-12-18T06:03:34;4.13;;;1.42;;
63693;SDS011;49839;51.798;10.954;2022-12-18T06:06:02;2.38;;;0.93;;
63693;SDS011;49839;51.798;10.954;2022-12-18T06:08:30;3.42;;;1.67;;
63693;SDS011;49839;51.798;10.954;2022-12-18T06:10:57;3.60;;;1.48;;
63693;SDS011;49839;51.798;10.954;2022-12-18T06:13:25;4.18;;;1.15;;
63693;SDS011;49839;51.798;10.954;2022-12-18T06:15:52;2.65;;;1.20;;
63693;SDS011;49839;51.798;10.954;2022-12-18T06:18:21;4.40;;;1.45;;
63693;SDS011;49839;51.798;10.954;2022-12-18T06:20:54;8.57;;;1.67;;
63693;SDS011;49839;51.798;10.954;2022-12-18T06:23:21;2.75;;;1.00;;
63693;SDS011;49839;51.798;10.954;2022-12-18T06:25:49;6.97;;;1.40;;
63693;SDS011;49839;51.798;10.954;2022-12-18T06:28:16;3.63;;;1.08;;
63693;SDS011;49839;51.798;10.954;2022-12-18T06:30:44;2.08;;;1.00;;
63693;SDS011;49839;51.798;10.954;2022-12-18T06:33:11;2.15;;;0.82;;
63693;SDS011;49839;51.798;10.954;2022-12-18T06:35:40;2.50;;;1.15;;
63693;SDS011;49839;51.798;10.954;2022-12-18T06:38:08;4.23;;;1.50;;
63693;SDS011;49839;51.798;10.954;2022-12-18T06:40:36;3.28;;;1.33;;
63693;SDS011;49839;51.798;10.954;2022-12-18T06:43:04;3.67;;;1.30;;
63693;SDS011;49839;51.798;10.954;2022-12-18T06:45:31;1.90;;;0.80;;
63693;SDS011;49839;51.798;10.954;2022-12-18T06:47:59;2.45;;;1.13;;
63693;SDS011;49839;51.798;10.954;2022-12-18T06:50:27;4.30;;;1.40;;
63693;SDS011;49839;51.798;10.954;2022-12-18T06:52:57;2.25;;;1.00;;
63693;SDS011;49839;51.798;10.954;2022-12-18T06:55:24;3.10;;;1.00;;
63693;SDS011;49839;51.798;10.954;2022-12-18T06:57:52;1.95;;;0.63;;
63693;SDS011;49839;51.798;10.954;2022-12-18T07:00:20;3.05;;;1.08;;
63693;SDS011;49839;51.798;10.954;2022-12-18T07:02:47;1.48;;;0.90;;
63693;SDS011;49839;51.798;10.954;2022-12-18T07:05:15;2.53;;;1.35;;
63693;SDS011;49839;51.798;10.954;2022-12-18T07:07:42;4.20;;;1.50;;
63693;SDS011;49839;51.798;10.954;2022-12-18T07:10:11;3.17;;;0.93;;
63693;SDS011;49839;51.798;10.954;2022-12-18T07:12:39;3.45;;;0.82;;
63693;SDS011;49839;51.798;10.954;2022-12-18T07:15:07;3.00;;;1.33;;
63693;SDS011;49839;51.798;10.954;2022-12-18T07:17:35;3.55;;;0.82;;
63693;SDS011;49839;51.798;10.954;2022-12-18T07:20:03;4.28;;;1.50;;
63693;SDS011;49839;51.798;10.954;2022-12-18T07:22:30;5.88;;;0.85;;
63693;SDS011;49839;51.798;10.954;2022-12-18T07:24:58;10.88;;;1.70;;
63693;SDS011;49839;51.798;10.954;2022-12-18T07:27:27;5.95;;;1.65;;
63693;SDS011;49839;51.798;10.954;2022-12-18T07:29:55;3.45;;;1.13;;
63693;SDS011;49839;51.798;10.954;2022-12-18T07:32:23;2.88;;;1.00;;
63693;SDS011;49839;51.798;10.954;2022-12-18T07:34:51;4.22;;;1.88;;
63693;SDS011;49839;51.798;10.954;2022-12-18T07:37:19;2.92;;;1.10;;
63693;SDS011;49839;51.798;10.954;2022-12-18T07:39:46;3.47;;;1.05;;
63693;SDS011;49839;51.798;10.954;2022-12-18T07:42:16;1.83;;;1.10;;
63693;SDS011;49839;51.798;10.954;2022-12-18T07:45:00;6.57;;;1.50;;
63693;SDS011;49839;51.798;10.954;2022-12-18T07:47:28;5.22;;;1.85;;
63693;SDS011;49839;51.798;10.954;2022-12-18T07:49:56;4.90;;;2.10;;
63693;SDS011;49839;51.798;10.954;2022-12-18T07:52:24;5.63;;;2.30;;
63693;SDS011;49839;51.798;10.954;2022-12-18T07:54:52;2.83;;;1.40;;
63693;SDS011;49839;51.798;10.954;2022-12-18T07:57:20;6.32;;;1.70;;
63693;SDS011;49839;51.798;10.954;2022-12-18T08:00:09;5.63;;;2.40;;
63693;SDS011;49839;51.798;10.954;2022-12-18T08:02:39;4.90;;;2.40;;
63693;SDS011;49839;51.798;10.954;2022-12-18T08:05:07;7.72;;;3.17;;
63693;SDS011;49839;51.798;10.954;2022-12-18T08:07:35;8.88;;;3.58;;
63693;SDS011;49839;51.798;10.954;2022-12-18T08:10:04;8.90;;;3.53;;
63693;SDS011;49839;51.798;10.954;2022-12-18T08:12:33;10.07;;;4.28;;
63693;SDS011;49839;51.798;10.954;2022-12-18T08:15:01;9.75;;;3.75;;
63693;SDS011;49839;51.798;10.954;2022-12-18T08:17:30;6.03;;;2.80;;
63693;SDS011;49839;51.798;10.954;2022-12-18T08:19:57;7.28;;;2.67;;
63693;SDS011;49839;51.798;10.954;2022-12-18T08:22:26;8.07;;;2.55;;
63693;SDS011;49839;51.798;10.954;2022-12-18T08:24:53;6.57;;;2.42;;
63693;SDS011;49839;51.798;10.954;2022-12-18T08:27:21;8.65;;;2.95;;
63693;SDS011;49839;51.798;10.954;2022-12-18T08:29:55;7.22;;;2.83;;
63693;SDS011;49839;51.798;10.954;2022-12-18T08:32:23;7.47;;;2.67;;
63693;SDS011;49839;51.798;10.954;2022-12-18T08:34:52;9.73;;;4.40;;
63693;SDS011;49839;51.798;10.954;2022-12-18T08:39:48;6.97;;;2.55;;
63693;SDS011;49839;51.798;10.954;2022-12-18T08:42:15;14.00;;;4.00;;
63693;SDS011;49839;51.798;10.954;2022-12-18T08:45:00;7.80;;;2.53;;
63693;SDS011;49839;51.798;10.954;2022-12-18T08:47:28;7.15;;;2.70;;
63693;SDS011;49839;51.798;10.954;2022-12-18T08:49:57;8.60;;;3.38;;
63693;SDS011;49839;51.798;10.954;2022-12-18T08:52:24;11.93;;;4.22;;
63693;SDS011;49839;51.798;10.954;2022-12-18T08:54:53;8.55;;;3.80;;
63693;SDS011;49839;51.798;10.954;2022-12-18T08:57:20;6.47;;;2.95;;
63693;SDS011;49839;51.798;10.954;2022-12-18T08:59:48;7.72;;;3.25;;
63693;SDS011;49839;51.798;10.954;2022-12-18T09:02:15;7.07;;;3.45;;
63693;SDS011;49839;51.798;10.954;2022-12-18T09:04:43;10.40;;;3.10;;
63693;SDS011;49839;51.798;10.954;2022-12-18T09:07:23;8.98;;;2.58;;
63693;SDS011;49839;51.798;10.954;2022-12-18T09:09:51;8.10;;;3.33;;
63693;SDS011;49839;51.798;10.954;2022-12-18T09:12:18;7.63;;;3.47;;
63693;SDS011;49839;51.798;10.954;2022-12-18T09:14:46;5.35;;;2.05;;
63693;SDS011;49839;51.798;10.954;2022-12-18T09:17:13;8.35;;;3.03;;
63693;SDS011;49839;51.798;10.954;2022-12-18T09:19:41;5.07;;;2.20;;
63693;SDS011;49839;51.798;10.954;2022-12-18T09:22:10;8.13;;;2.97;;
63693;SDS011;49839;51.798;10.954;2022-12-18T09:24:39;16.58;;;6.78;;
63693;SDS011;49839;51.798;10.954;2022-12-18T09:27:06;16.13;;;7.07;;
63693;SDS011;49839;51.798;10.954;2022-12-18T09:29:34;19.60;;;7.90;;
63693;SDS011;49839;51.798;10.954;2022-12-18T09:32:02;22.33;;;10.30;;
63693;SDS011;49839;51.798;10.954;2022-12-18T09:34:29;12.32;;;5.50;;
63693;SDS011;49839;51.798;10.954;2022-12-18T09:36:57;16.63;;;8.95;;
63693;SDS011;49839;51.798;10.954;2022-12-18T09:39:24;17.38;;;8.60;;
63693;SDS011;49839;51.798;10.954;2022-12-18T09:41:53;19.42;;;10.00;;
63693;SDS011;49839;51.798;10.954;2022-12-18T09:44:25;15.80;;;9.48;;
63693;SDS011;49839;51.798;10.954;2022-12-18T09:46:57;16.88;;;8.98;;
63693;SDS011;49839;51.798;10.954;2022-12-18T09:49:25;21.42;;;8.50;;
63693;SDS011;49839;51.798;10.954;2022-12-18T09:51:55;15.15;;;8.57;;
63693;SDS011;49839;51.798;10.954;2022-12-18T09:54:25;10.07;;;5.03;;
63693;SDS011;49839;51.798;10.954;2022-12-18T09:56:55;6.35;;;3.42;;
63693;SDS011;49839;51.798;10.954;2022-12-18T09:59:24;7.95;;;3.95;;
63693;SDS011;49839;51.798;10.954;2022-12-18T10:01:52;5.22;;;2.20;;
63693;SDS011;49839;51.798;10.954;2022-12-18T10:04:21;5.38;;;2.10;;
63693;SDS011;49839;51.798;10.954;2022-12-18T10:06:51;6.45;;;3.00;;
63693;SDS011;49839;51.798;10.954;2022-12-18T10:09:22;8.88;;;4.20;;
63693;SDS011;49839;51.798;10.954;2022-12-18T10:11:54;8.02;;;3.55;;
63693;SDS011;49839;51.798;10.954;2022-12-18T10:14:26;8.25;;;2.50;;
63693;SDS011;49839;51.798;10.954;2022-12-18T10:16:59;5.65;;;2.38;;
63693;SDS011;49839;51.798;10.954;2022-12-18T10:19:32;7.43;;;4.00;;
63693;SDS011;49839;51.798;10.954;2022-12-18T10:22:03;10.55;;;5.20;;
63693;SDS011;49839;51.798;10.954;2022-12-18T10:24:37;10.73;;;6.35;;
63693;SDS011;49839;51.798;10.954;2022-12-18T10:27:10;13.13;;;8.30;;
63693;SDS011;49839;51.798;10.954;2022-12-18T10:29:40;12.30;;;6.88;;
63693;SDS011;49839;51.798;10.954;2022-12-18T10:32:09;11.05;;;5.85;;
63693;SDS011;49839;51.798;10.954;2022-12-18T10:34:39;9.60;;;5.78;;
63693;SDS011;49839;51.798;10.954;2022-12-18T10:37:09;14.32;;;8.25;;
63693;SDS011;49839;51.798;10.954;2022-12-18T10:39:41;9.57;;;3.50;;
63693;SDS011;49839;51.798;10.954;2022-12-18T10:42:10;8.07;;;4.20;;
63693;SDS011;49839;51.798;10.954;2022-12-18T10:44:40;6.95;;;3.50;;
63693;SDS011;49839;51.798;10.954;2022-12-18T10:47:11;17.40;;;7.83;;
63693;SDS011;49839;51.798;10.954;2022-12-18T10:49:40;14.48;;;8.38;;
63693;SDS011;49839;51.798;10.954;2022-12-18T10:52:12;16.48;;;8.55;;
63693;SDS011;49839;51.798;10.954;2022-12-18T10:54:45;12.00;;;6.07;;
63693;SDS011;49839;51.798;10.954;2022-12-18T10:57:17;13.93;;;7.18;;
63693;SDS011;49839;51.798;10.954;2022-12-18T13:11:28;4.32;;;1.90;;
63693;SDS011;49839;51.798;10.954;2022-12-18T13:14:29;3.88;;;1.60;;
63693;SDS011;49839;51.798;10.954;2022-12-18T13:19:43;4.38;;;1.42;;
63693;SDS011;49839;51.798;10.954;2022-12-18T13:22:21;3.40;;;1.23;;
63693;SDS011;49839;51.798;10.954;2022-12-18T13:24:49;3.47;;;1.23;;
63693;SDS011;49839;51.798;10.954;2022-12-18T13:30:12;3.80;;;1.70;;
63693;SDS011;49839;51.798;10.954;2022-12-18T13:35:51;3.65;;;1.48;;
63693;SDS011;49839;51.798;10.954;2022-12-18T13:38:21;3.90;;;1.65;;
63693;SDS011;49839;51.798;10.954;2022-12-18T13:43:27;3.95;;;1.63;;
63693;SDS011;49839;51.798;10.954;2022-12-18T13:45:59;6.50;;;2.13;;
63693;SDS011;49839;51.798;10.954;2022-12-18T13:48:28;7.72;;;3.50;;
63693;SDS011;49839;51.798;10.954;2022-12-18T13:50:58;8.90;;;4.70;;
63693;SDS011;49839;51.798;10.954;2022-12-18T13:53:30;12.02;;;4.90;;
63693;SDS011;49839;51.798;10.954;2022-12-18T13:55:59;9.60;;;4.05;;
63693;SDS011;49839;51.798;10.954;2022-12-18T13:58:26;9.30;;;3.78;;
63693;SDS011;49839;51.798;10.954;2022-12-18T14:00:54;6.05;;;3.08;;
63693;SDS011;49839;51.798;10.954;2022-12-18T14:03:23;7.97;;;3.55;;
63693;SDS011;49839;51.798;10.954;2022-12-18T14:05:56;9.80;;;3.97;;
63693;SDS011;49839;51.798;10.954;2022-12-18T14:08:29;10.23;;;4.93;;
63693;SDS011;49839;51.798;10.954;2022-12-18T14:10:58;12.85;;;5.50;;
63693;SDS011;49839;51.798;10.954;2022-12-18T14:13:26;13.93;;;6.00;;
63693;SDS011;49839;51.798;10.954;2022-12-18T14:15:55;12.25;;;6.10;;
63693;SDS011;49839;51.798;10.954;2022-12-18T14:18:29;7.53;;;3.65;;
63693;SDS011;49839;51.798;10.954;2022-12-18T14:20:59;8.02;;;3.67;;
63693;SDS011;49839;51.798;10.954;2022-12-18T14:23:32;7.30;;;3.53;;
63693;SDS011;49839;51.798;10.954;2022-12-18T14:26:01;9.60;;;3.50;;
63693;SDS011;49839;51.798;10.954;2022-12-18T14:28:31;6.25;;;2.85;;
63693;SDS011;49839;51.798;10.954;2022-12-18T14:30:59;7.15;;;2.90;;
63693;SDS011;49839;51.798;10.954;2022-12-18T14:33:27;4.13;;;1.90;;
63693;SDS011;49839;51.798;10.954;2022-12-18T14:35:56;7.72;;;2.70;;
63693;SDS011;49839;51.798;10.954;2022-12-18T14:38:25;6.03;;;2.10;;
63693;SDS011;49839;51.798;10.954;2022-12-18T14:40:55;4.20;;;1.88;;
63693;SDS011;49839;51.798;10.954;2022-12-18T14:43:23;4.88;;;2.03;;
63693;SDS011;49839;51.798;10.954;2022-12-18T14:45:50;5.07;;;1.55;;
63693;SDS011;49839;51.798;10.954;2022-12-18T14:48:19;5.60;;;2.40;;
63693;SDS011;49839;51.798;10.954;2022-12-18T14:50:56;3.40;;;1.23;;
63693;SDS011;49839;51.798;10.954;2022-12-18T14:53:32;6.13;;;2.35;;
63693;SDS011;49839;51.798;10.954;2022-12-18T14:56:01;7.00;;;2.83;;
63693;SDS011;49839;51.798;10.954;2022-12-18T14:58:29;7.07;;;2.90;;
63693;SDS011;49839;51.798;10.954;2022-12-18T15:00:56;7.78;;;2.97;;
63693;SDS011;49839;51.798;10.954;2022-12-18T15:03:24;10.25;;;3.17;;
63693;SDS011;49839;51.798;10.954;2022-12-18T15:05:53;6.68;;;2.92;;
63693;SDS011;49839;51.798;10.954;2022-12-18T15:08:28;5.95;;;2.38;;
63693;SDS011;49839;51.798;10.954;2022-12-18T15:10:56;5.25;;;1.92;;
63693;SDS011;49839;51.798;10.954;2022-12-18T15:13:25;5.70;;;1.65;;
63693;SDS011;49839;51.798;10.954;2022-12-18T15:15:53;3.13;;;1.58;;
63693;SDS011;49839;51.798;10.954;2022-12-18T15:20:51;4.47;;;1.45;;
63693;SDS011;49839;51.798;10.954;2022-12-18T15:23:19;2.03;;;0.70;;
63693;SDS011;49839;51.798;10.954;2022-12-18T15:25:48;2.55;;;1.17;;
63693;SDS011;49839;51.798;10.954;2022-12-18T15:28:18;4.43;;;1.35;;
63693;SDS011;49839;51.798;10.954;2022-12-18T15:31:04;3.83;;;1.35;;
63693;SDS011;49839;51.798;10.954;2022-12-18T15:33:34;2.28;;;0.95;;
63693;SDS011;49839;51.798;10.954;2022-12-18T15:36:03;3.72;;;1.55;;
63693;SDS011;49839;51.798;10.954;2022-12-18T15:38:31;3.97;;;1.70;;
63693;SDS011;49839;51.798;10.954;2022-12-18T15:40:59;2.97;;;1.50;;
63693;SDS011;49839;51.798;10.954;2022-12-18T15:43:26;6.20;;;1.98;;
63693;SDS011;49839;51.798;10.954;2022-12-18T15:46:05;3.95;;;1.65;;
63693;SDS011;49839;51.798;10.954;2022-12-18T15:48:33;6.50;;;1.88;;
63693;SDS011;49839;51.798;10.954;2022-12-18T15:51:01;4.75;;;1.60;;
63693;SDS011;49839;51.798;10.954;2022-12-18T15:53:29;4.93;;;1.70;;
63693;SDS011;49839;51.798;10.954;2022-12-18T15:55:57;5.85;;;2.00;;
63693;SDS011;49839;51.798;10.954;2022-12-18T15:58:43;3.35;;;1.58;;
63693;SDS011;49839;51.798;10.954;2022-12-18T16:01:12;3.67;;;1.55;;
63693;SDS011;49839;51.798;10.954;2022-12-18T16:03:39;3.58;;;1.58;;
63693;SDS011;49839;51.798;10.954;2022-12-18T16:06:08;4.90;;;2.13;;
63693;SDS011;49839;51.798;10.954;2022-12-18T16:08:36;4.28;;;1.90;;
63693;SDS011;49839;51.798;10.954;2022-12-18T16:11:04;4.80;;;2.03;;
63693;SDS011;49839;51.798;10.954;2022-12-18T16:13:32;3.20;;;1.08;;
63693;SDS011;49839;51.798;10.954;2022-12-18T16:16:00;4.28;;;1.48;;
63693;SDS011;49839;51.798;10.954;2022-12-18T16:18:29;6.68;;;2.38;;
63693;SDS011;49839;51.798;10.954;2022-12-18T16:20:56;7.82;;;2.45;;
63693;SDS011;49839;51.798;10.954;2022-12-18T16:23:25;3.47;;;1.58;;
63693;SDS011;49839;51.798;10.954;2022-12-18T16:25:53;6.43;;;1.85;;
63693;SDS011;49839;51.798;10.954;2022-12-18T16:28:20;5.10;;;1.77;;
63693;SDS011;49839;51.798;10.954;2022-12-18T16:30:48;4.75;;;2.33;;
63693;SDS011;49839;51.798;10.954;2022-12-18T16:33:15;3.97;;;1.60;;
63693;SDS011;49839;51.798;10.954;2022-12-18T16:35:50;3.65;;;1.67;;
63693;SDS011;49839;51.798;10.954;2022-12-18T16:38:18;4.45;;;1.67;;
63693;SDS011;49839;51.798;10.954;2022-12-18T16:40:45;4.80;;;1.90;;
63693;SDS011;49839;51.798;10.954;2022-12-18T16:43:27;9.02;;;3.00;;
63693;SDS011;49839;51.798;10.954;2022-12-18T16:45:54;9.00;;;3.13;;
63693;SDS011;49839;51.798;10.954;2022-12-18T16:48:23;5.90;;;2.88;;
63693;SDS011;49839;51.798;10.954;2022-12-18T16:50:53;6.03;;;2.55;;
63693;SDS011;49839;51.798;10.954;2022-12-18T16:53:26;4.60;;;2.28;;
63693;SDS011;49839;51.798;10.954;2022-12-18T16:55:54;9.43;;;5.35;;
63693;SDS011;49839;51.798;10.954;2022-12-18T16:58:22;6.13;;;2.47;;
63693;SDS011;49839;51.798;10.954;2022-12-18T17:00:49;5.68;;;2.20;;
63693;SDS011;49839;51.798;10.954;2022-12-18T17:03:17;5.05;;;1.88;;
63693;SDS011;49839;51.798;10.954;2022-12-18T17:05:44;5.35;;;2.20;;
63693;SDS011;49839;51.798;10.954;2022-12-18T17:08:19;7.75;;;4.05;;
63693;SDS011;49839;51.798;10.954;2022-12-18T17:10:47;5.55;;;2.15;;
63693;SDS011;49839;51.798;10.954;2022-12-18T17:13:14;16.65;;;9.85;;